createdAt,value
2023-03-05T00:02:23.656Z,102264.81
2023-03-05T00:05:09.431Z,102270.09
2023-03-05T00:07:54.456Z,102245.16
2023-03-05T00:10:39.801Z,102265.66
2023-03-05T00:13:25.383Z,102264.66
2023-03-05T00:16:13.936Z,102239.03
2023-03-05T00:19:00.832Z,102263.13
2023-03-05T00:21:46.051Z,102253.56
2023-03-05T00:24:31.360Z,102254.25
2023-03-05T00:27:16.515Z,102245.59
2023-03-05T00:30:01.543Z,102246.53
2023-03-05T00:32:46.643Z,102240.53
2023-03-05T00:35:31.574Z,102237.88
2023-03-05T00:38:16.690Z,102230.94
2023-03-05T00:41:02.098Z,102222.28
2023-03-05T00:43:47.947Z,102224.88
2023-03-05T00:46:33.587Z,102226.66
2023-03-05T00:49:19.036Z,102231.19
2023-03-05T00:52:04.474Z,102221.81
2023-03-05T00:54:49.721Z,102215.59
2023-03-05T00:57:35.175Z,102214.75
2023-03-05T01:00:20.438Z,102212.97
2023-03-05T01:03:05.714Z,102212.16
2023-03-05T01:05:50.801Z,102211.16
2023-03-05T01:08:36.438Z,102191.78
2023-03-05T01:11:21.460Z,102200.31
2023-03-05T01:14:06.427Z,102185.63
2023-03-05T01:16:51.580Z,102202.78
2023-03-05T01:19:38.018Z,102199.31
2023-03-05T01:22:22.983Z,102189.69
2023-03-05T01:25:08.995Z,102164.78
2023-03-05T01:27:54.455Z,102183.59
2023-03-05T01:30:39.595Z,102178.56
2023-03-05T01:33:24.629Z,102173.50
2023-03-05T01:36:14.803Z,102170.97
2023-03-05T01:39:00.418Z,102175.25
2023-03-05T01:41:45.670Z,102175.94
2023-03-05T01:44:31.606Z,102167.22
2023-03-05T01:47:16.498Z,102161.13
2023-03-05T01:50:01.957Z,102161.19
2023-03-05T01:52:52.971Z,102152.88
2023-03-05T01:55:38.116Z,102150.34
2023-03-05T01:58:24.502Z,102129.66
2023-03-05T02:01:10.004Z,102144.91
2023-03-05T02:03:55.288Z,102138.88
2023-03-05T02:06:42.673Z,102142.25
2023-03-05T02:09:28.749Z,102136.13
2023-03-05T02:12:15.079Z,102124.13
2023-03-05T02:15:00.061Z,102110.53
2023-03-05T02:17:45.671Z,102127.72
2023-03-05T02:20:46.351Z,102101.19
2023-03-05T02:23:36.304Z,102116.44
2023-03-05T02:26:21.379Z,102115.66
2023-03-05T02:29:08.501Z,102107.94
2023-03-05T02:31:53.743Z,102112.22
2023-03-05T02:34:39.529Z,102102.66
2023-03-05T02:37:24.393Z,102099.22
2023-03-05T02:40:10.143Z,102097.56
2023-03-05T02:42:55.203Z,102089.78
2023-03-05T02:45:40.371Z,102094.06
2023-03-05T02:48:25.556Z,102084.56
2023-03-05T02:51:10.444Z,102085.31
2023-03-05T02:53:55.356Z,102079.34
2023-03-05T02:56:40.357Z,102077.72
2023-03-05T02:59:25.227Z,102071.69
2023-03-05T03:02:10.061Z,102071.78
2023-03-05T03:04:54.875Z,102069.94
2023-03-05T03:07:39.699Z,102065.66
2023-03-05T03:10:24.549Z,102058.84
2023-03-05T03:13:09.433Z,102061.47
2023-03-05T03:16:04.502Z,102056.38
2023-03-05T03:18:49.276Z,102059.88
2023-03-05T03:21:34.158Z,102049.63
2023-03-05T03:24:18.971Z,102047.13
2023-03-05T03:27:03.888Z,102043.72
2023-03-05T03:29:48.885Z,102032.56
2023-03-05T03:32:33.990Z,102032.56
2023-03-05T03:35:19.411Z,102030.81
2023-03-05T03:38:04.491Z,102029.13
2023-03-05T03:40:49.486Z,102028.38
2023-03-05T03:43:37.734Z,102025.72
2023-03-05T03:46:22.758Z,102018.91
2023-03-05T03:49:10.931Z,102010.31
2023-03-05T03:51:55.983Z,102005.94
2023-03-05T03:54:41.175Z,102008.59
2023-03-05T03:57:26.288Z,102006.03
2023-03-05T04:00:11.455Z,102000.81
2023-03-05T04:02:56.548Z,101995.63
2023-03-05T04:05:41.451Z,101997.31
2023-03-05T04:08:26.694Z,101993.03
2023-03-05T04:11:11.589Z,101993.94
2023-03-05T04:13:56.503Z,101989.63
2023-03-05T04:16:41.585Z,101987.94
2023-03-05T04:19:28.408Z,101983.75
2023-03-05T04:22:14.409Z,101985.53
2023-03-05T04:24:59.530Z,101977.78
2023-03-05T04:27:44.744Z,101979.41
2023-03-05T04:30:29.580Z,101974.16
2023-03-05T04:33:14.795Z,101966.41
2023-03-05T04:36:00.260Z,101968.19
2023-03-05T04:38:45.260Z,101968.16
2023-03-05T04:41:30.137Z,101957.78
2023-03-05T04:44:15.178Z,101961.31
2023-03-05T04:47:00.260Z,101958.06
2023-03-05T04:49:45.167Z,101958.16
2023-03-05T04:52:30.146Z,101956.47
2023-03-05T04:55:16.174Z,101955.53
2023-03-05T04:58:01.306Z,101957.31
2023-03-05T05:00:46.334Z,101954.81
2023-03-05T05:03:31.803Z,101947.03
2023-03-05T05:06:16.990Z,101950.53
2023-03-05T05:09:01.954Z,101945.34
2023-03-05T05:11:46.747Z,101943.63
2023-03-05T05:14:31.742Z,101950.50
2023-03-05T05:17:16.682Z,101942.72
2023-03-05T05:20:01.876Z,101948.69
2023-03-05T05:22:46.669Z,101941.00
2023-03-05T05:25:31.566Z,101939.31
2023-03-05T05:28:16.409Z,101936.78
2023-03-05T05:31:01.257Z,101931.69
2023-03-05T05:33:48.766Z,101925.72
2023-03-05T05:36:34.556Z,101928.25
2023-03-05T05:39:20.559Z,101919.72
2023-03-05T05:42:06.053Z,101921.56
2023-03-05T05:44:51.141Z,101918.13
2023-03-05T05:47:35.967Z,101915.53
2023-03-05T05:50:21.425Z,101901.63
2023-03-05T05:53:06.272Z,101904.16
2023-03-05T05:55:51.448Z,101898.09
2023-03-05T05:58:37.887Z,101888.56
2023-03-05T06:01:24.520Z,101890.44
2023-03-05T06:04:09.536Z,101894.78
2023-03-05T06:06:54.461Z,101891.44
2023-03-05T06:09:39.259Z,101896.69
2023-03-05T06:12:24.231Z,101894.19
2023-03-05T06:15:09.361Z,101894.25
2023-03-05T06:17:54.619Z,101897.78
2023-03-05T06:20:39.502Z,101894.44
2023-03-05T06:23:24.938Z,101890.03
2023-03-05T06:26:11.290Z,101895.28
2023-03-05T06:28:57.296Z,101899.72
2023-03-05T06:31:42.412Z,101897.94
2023-03-05T06:34:27.238Z,101891.84
2023-03-05T06:37:12.096Z,101895.34
2023-03-05T06:39:57.060Z,101897.09
2023-03-05T06:42:41.950Z,101885.81
2023-03-05T06:45:26.965Z,101890.16
2023-03-05T06:48:12.766Z,101892.81
2023-03-05T06:50:57.819Z,101893.72
2023-03-05T06:53:43.013Z,101886.78
2023-03-05T06:56:28.412Z,101888.53
2023-03-05T06:59:14.693Z,101880.75
2023-03-05T07:01:59.808Z,101878.16
2023-03-05T07:04:44.797Z,101874.78
2023-03-05T07:07:29.631Z,101866.97
2023-03-05T07:10:14.497Z,101871.25
2023-03-05T07:12:59.575Z,101872.03
2023-03-05T07:15:44.567Z,101866.91
2023-03-05T07:18:29.956Z,101872.09
2023-03-05T07:21:19.415Z,101874.69
2023-03-05T07:24:05.388Z,101883.22
2023-03-05T07:26:50.553Z,101874.59
2023-03-05T07:29:35.393Z,101883.22
2023-03-05T07:32:20.334Z,101877.19
2023-03-05T07:35:05.572Z,101877.13
2023-03-05T07:37:51.068Z,101875.44
2023-03-05T07:40:36.372Z,101877.94
2023-03-05T07:43:21.184Z,101868.34
2023-03-05T07:46:11.336Z,101863.28
2023-03-05T07:48:56.990Z,101872.78
2023-03-05T07:51:42.130Z,101864.13
2023-03-05T07:54:27.030Z,101858.94
2023-03-05T07:57:13.456Z,101859.94
2023-03-05T07:59:58.565Z,101857.28
2023-03-05T08:02:43.524Z,101855.47
2023-03-05T08:05:28.871Z,101851.03
2023-03-05T08:08:13.725Z,101845.81
2023-03-05T08:11:03.369Z,101846.75
2023-03-05T08:13:48.494Z,101852.03
2023-03-05T08:16:33.442Z,101837.13
2023-03-05T08:19:19.336Z,101849.16
2023-03-05T08:22:04.193Z,101848.25
2023-03-05T08:24:50.520Z,101846.56
2023-03-05T08:27:38.077Z,101843.09
2023-03-05T08:30:27.153Z,101849.19
2023-03-05T08:33:12.969Z,101850.78
2023-03-05T08:35:57.825Z,101841.97
2023-03-05T08:38:44.673Z,101842.72
2023-03-05T08:41:29.566Z,101839.25
2023-03-05T08:44:14.436Z,101835.44
2023-03-05T08:46:59.468Z,101844.84
2023-03-05T08:49:44.935Z,101838.69
2023-03-05T08:52:30.151Z,101830.88
2023-03-05T08:55:15.815Z,101829.13
2023-03-05T08:58:00.729Z,101820.34
2023-03-05T09:00:45.566Z,101819.47
2023-03-05T09:03:30.631Z,101816.78
2023-03-05T09:06:15.932Z,101815.88
2023-03-05T09:09:00.840Z,101815.66
2023-03-05T09:11:45.716Z,101819.03
2023-03-05T09:14:30.544Z,101817.19
2023-03-05T09:17:15.593Z,101816.97
2023-03-05T09:20:01.040Z,101809.88
2023-03-05T09:22:45.855Z,101811.69
2023-03-05T09:25:30.833Z,101807.19
2023-03-05T09:28:16.353Z,101810.56
2023-03-05T09:31:02.388Z,101805.44
2023-03-05T09:33:48.447Z,101806.06
2023-03-05T09:36:33.278Z,101793.59
2023-03-05T09:39:18.049Z,101791.84
2023-03-05T09:42:23.426Z,101796.84
2023-03-05T09:45:17.130Z,101789.38
2023-03-05T09:48:16.513Z,101780.53
2023-03-05T09:51:02.764Z,101780.19
2023-03-05T09:54:00.573Z,101774.88
2023-03-05T09:56:50.321Z,101772.94
2023-03-05T09:59:58.541Z,101775.75
2023-03-05T10:02:48.508Z,101768.31
2023-03-05T10:05:52.303Z,101763.84
2023-03-05T10:08:46.530Z,101761.13
2023-03-05T10:11:39.648Z,101756.53
2023-03-05T10:14:27.652Z,101755.81
2023-03-05T10:17:18.777Z,101754.78
2023-03-05T10:20:22.405Z,101751.00
2023-03-05T10:23:13.368Z,101751.91
2023-03-05T10:26:02.244Z,101734.44
2023-03-05T10:29:06.240Z,101741.97
2023-03-05T10:32:11.978Z,101736.47
2023-03-05T10:35:06.050Z,101738.47
2023-03-05T10:38:10.018Z,101732.69
2023-03-05T10:40:55.623Z,101722.91
2023-03-05T10:43:51.495Z,101715.81
2023-03-05T10:46:37.634Z,101716.88
2023-03-05T10:49:37.603Z,101716.56
2023-03-05T10:52:27.003Z,101713.56
2023-03-05T10:55:14.559Z,101702.88
2023-03-05T10:58:01.227Z,101697.25
2023-03-05T11:00:58.448Z,101690.56
2023-03-05T11:03:49.748Z,101682.66
2023-03-05T11:06:36.286Z,101681.78
2023-03-05T11:09:22.863Z,101677.03
2023-03-05T11:12:10.989Z,101672.81
2023-03-05T11:15:14.066Z,101673.69
2023-03-05T11:18:31.532Z,101677.22
2023-03-05T11:21:23.806Z,101671.53
2023-03-05T11:24:19.298Z,101662.72
2023-03-05T11:27:21.266Z,101662.53
2023-03-05T11:30:29.388Z,101641.16
2023-03-05T11:33:14.227Z,101639.47
2023-03-05T11:36:17.914Z,101637.72
2023-03-05T11:39:05.757Z,101648.31
2023-03-05T11:41:56.358Z,101645.69
2023-03-05T11:44:44.123Z,101624.94
2023-03-05T11:47:32.038Z,101619.50
2023-03-05T11:50:24.748Z,101615.25
2023-03-05T11:53:22.020Z,101611.94
2023-03-05T11:56:22.514Z,101602.94
2023-03-05T11:59:13.882Z,101613.03
2023-03-05T12:01:59.010Z,101594.00
2023-03-05T12:04:44.257Z,101603.13
2023-03-05T12:07:37.499Z,101591.50
2023-03-05T12:10:24.499Z,101590.31
2023-03-05T12:13:15.309Z,101586.53
2023-03-05T12:16:02.917Z,101584.59
2023-03-05T12:19:08.210Z,101569.13
2023-03-05T12:21:53.256Z,101564.50
2023-03-05T12:24:39.569Z,101563.44
2023-03-05T12:27:35.382Z,101550.84
2023-03-05T12:30:35.723Z,101555.41
2023-03-05T12:33:32.837Z,101546.25
2023-03-05T12:36:17.747Z,101540.84
2023-03-05T12:39:22.714Z,101528.13
2023-03-05T12:42:26.806Z,101517.84
2023-03-05T12:45:16.086Z,101507.50
2023-03-05T12:48:01.113Z,101510.97
2023-03-05T12:50:45.971Z,101506.44
2023-03-05T12:53:30.862Z,101500.84
2023-03-05T12:56:21.955Z,101493.34
2023-03-05T12:59:06.856Z,101469.47
2023-03-05T13:01:56.650Z,101478.66
2023-03-05T13:04:44.179Z,101463.00
2023-03-05T13:07:29.277Z,101464.75
2023-03-05T13:10:22.087Z,101467.38
2023-03-05T13:13:12.970Z,101457.59
2023-03-05T13:15:58.194Z,101452.97
2023-03-05T13:18:45.755Z,101451.47
2023-03-05T13:21:31.981Z,101449.03
2023-03-05T13:24:18.272Z,101436.94
2023-03-05T13:27:18.900Z,101434.06
2023-03-05T13:30:04.057Z,101426.25
2023-03-05T13:32:50.698Z,101418.28
2023-03-05T13:35:44.047Z,101420.00
2023-03-05T13:38:33.357Z,101418.13
2023-03-05T13:41:26.965Z,101419.22
2023-03-05T13:44:20.817Z,101415.94
2023-03-05T13:47:07.088Z,101399.50
2023-03-05T13:49:56.318Z,101398.44
2023-03-05T13:52:41.637Z,101400.78
2023-03-05T13:55:26.800Z,101401.38
2023-03-05T13:58:30.637Z,101394.53
2023-03-05T14:01:22.009Z,101389.09
2023-03-05T14:04:12.780Z,101376.50
2023-03-05T14:07:03.765Z,101368.63
2023-03-05T14:09:49.954Z,101365.97
2023-03-05T14:12:37.805Z,101360.47
2023-03-05T14:15:22.996Z,101358.19
2023-03-05T14:18:19.083Z,101357.88
2023-03-05T14:21:08.905Z,101348.94
2023-03-05T14:23:56.508Z,101339.38
2023-03-05T14:26:48.892Z,101341.22
2023-03-05T14:29:34.697Z,101331.06
2023-03-05T14:32:25.253Z,101333.66
2023-03-05T14:35:17.208Z,101329.63
2023-03-05T14:38:02.175Z,101327.34
2023-03-05T14:40:47.241Z,101321.88
2023-03-05T14:43:32.045Z,101319.47
2023-03-05T14:46:17.437Z,101313.56
2023-03-05T14:49:02.781Z,101309.13
2023-03-05T14:51:47.752Z,101303.66
2023-03-05T14:54:36.035Z,101307.03
2023-03-05T14:57:23.047Z,101296.28
2023-03-05T15:00:22.433Z,101294.63
2023-03-05T15:03:10.324Z,101291.59
2023-03-05T15:05:56.791Z,101290.81
2023-03-05T15:08:41.649Z,101282.00
2023-03-05T15:11:26.529Z,101277.31
2023-03-05T15:14:11.471Z,101270.78
2023-03-05T15:16:56.523Z,101259.28
2023-03-05T15:19:41.414Z,101261.16
2023-03-05T15:22:26.280Z,101253.03
2023-03-05T15:25:11.521Z,101249.59
2023-03-05T15:27:56.614Z,101242.94
2023-03-05T15:30:43.733Z,101240.81
2023-03-05T15:33:29.261Z,101235.59
2023-03-05T15:36:14.259Z,101227.94
2023-03-05T15:38:59.191Z,101225.84
2023-03-05T15:41:44.064Z,101224.81
2023-03-05T15:44:28.918Z,101226.50
2023-03-05T15:47:13.811Z,101219.75
2023-03-05T15:49:58.741Z,101211.44
2023-03-05T15:52:43.610Z,101207.50
2023-03-05T15:55:28.617Z,101207.41
2023-03-05T15:58:14.919Z,101204.91
2023-03-05T16:00:59.820Z,101201.38
2023-03-05T16:03:45.162Z,101201.47
2023-03-05T16:06:30.609Z,101198.72
2023-03-05T16:09:16.871Z,101192.03
2023-03-05T16:12:03.167Z,101184.59
2023-03-05T16:14:51.032Z,101192.38
2023-03-05T16:17:38.733Z,101192.47
2023-03-05T16:20:23.981Z,101184.59
2023-03-05T16:23:08.813Z,101182.31
2023-03-05T16:25:53.964Z,101176.66
2023-03-05T16:28:38.737Z,101173.19
2023-03-05T16:31:23.611Z,101163.75
2023-03-05T16:34:08.746Z,101157.84
2023-03-05T16:36:53.673Z,101152.72
2023-03-05T16:39:40.731Z,101151.09
2023-03-05T16:42:25.765Z,101153.75
2023-03-05T16:45:11.415Z,101151.97
2023-03-05T16:47:56.446Z,101146.31
2023-03-05T16:50:41.379Z,101144.91
2023-03-05T16:53:26.286Z,101127.78
2023-03-05T16:56:11.141Z,101130.50
2023-03-05T16:58:56.522Z,101130.25
2023-03-05T17:01:41.501Z,101131.94
2023-03-05T17:04:26.402Z,101131.75
2023-03-05T17:07:11.910Z,101128.69
2023-03-05T17:09:57.207Z,101136.50
2023-03-05T17:12:43.653Z,101130.84
2023-03-05T17:15:28.697Z,101118.09
2023-03-05T17:18:13.648Z,101115.63
2023-03-05T17:20:58.567Z,101121.19
2023-03-05T17:23:43.646Z,101121.19
2023-03-05T17:26:28.759Z,101116.97
2023-03-05T17:29:13.850Z,101109.34
2023-03-05T17:31:58.915Z,101107.84
2023-03-05T17:34:44.509Z,101108.00
2023-03-05T17:37:30.262Z,101111.53
2023-03-05T17:40:15.364Z,101114.22
2023-03-05T17:43:00.930Z,101106.41
2023-03-05T17:45:47.196Z,101109.88
2023-03-05T17:48:34.062Z,101108.25
2023-03-05T17:51:19.241Z,101098.00
2023-03-05T17:54:04.686Z,101098.00
2023-03-05T17:56:54.102Z,101081.66
2023-03-05T17:59:39.288Z,101082.72
2023-03-05T18:02:24.480Z,101083.78
2023-03-05T18:05:09.878Z,101085.47
2023-03-05T18:07:55.559Z,101087.91
2023-03-05T18:10:40.649Z,101073.34
2023-03-05T18:13:25.587Z,101068.97
2023-03-05T18:16:10.798Z,101070.88
2023-03-05T18:18:55.928Z,101085.63
2023-03-05T18:21:41.476Z,101079.63
2023-03-05T18:24:26.598Z,101087.34
2023-03-05T18:27:11.546Z,101090.66
2023-03-05T18:29:56.370Z,101084.28
2023-03-05T18:32:41.293Z,101086.88
2023-03-05T18:35:27.105Z,101089.66
2023-03-05T18:38:11.968Z,101094.84
2023-03-05T18:40:57.063Z,101079.28
2023-03-05T18:43:42.772Z,101082.72
2023-03-05T18:46:27.803Z,101084.63
2023-03-05T18:49:12.776Z,101083.03
2023-03-05T18:51:57.995Z,101080.53
2023-03-05T18:54:42.786Z,101079.72
2023-03-05T18:57:27.617Z,101081.53
2023-03-05T19:00:13.979Z,101071.16
2023-03-05T19:02:59.089Z,101067.75
2023-03-05T19:05:44.156Z,101066.09
2023-03-05T19:08:28.959Z,101061.13
2023-03-05T19:11:15.280Z,101054.25
2023-03-05T19:14:00.308Z,101061.25
2023-03-05T19:16:45.086Z,101037.03
2023-03-05T19:19:29.821Z,101025.03
2023-03-05T19:22:14.708Z,101022.56
2023-03-05T19:24:59.746Z,101019.25
2023-03-05T19:27:44.822Z,101026.94
2023-03-05T19:30:30.051Z,101014.78
2023-03-05T19:33:14.962Z,101013.09
2023-03-05T19:36:00.258Z,101011.38
2023-03-05T19:38:45.054Z,101007.91
2023-03-05T19:41:29.957Z,100996.63
2023-03-05T19:44:15.228Z,101003.56
2023-03-05T19:47:00.431Z,100989.19
2023-03-05T19:49:45.304Z,100988.22
2023-03-05T19:52:30.063Z,100995.09
2023-03-05T19:55:15.018Z,100982.53
2023-03-05T19:57:59.880Z,100996.00
2023-03-05T20:00:44.882Z,100986.47
2023-03-05T20:03:29.757Z,100996.97
2023-03-05T20:06:14.712Z,100989.19
2023-03-05T20:08:59.846Z,100996.19
2023-03-05T20:11:44.660Z,100991.97
2023-03-05T20:14:29.663Z,100985.81
2023-03-05T20:17:14.932Z,100981.59
2023-03-05T20:20:00.216Z,100984.25
2023-03-05T20:22:45.996Z,100977.34
2023-03-05T20:25:31.206Z,100979.09
2023-03-05T20:28:16.571Z,100986.16
2023-03-05T20:31:01.552Z,100985.94
2023-03-05T20:33:47.138Z,100990.00
2023-03-05T20:36:34.500Z,100990.00
2023-03-05T20:39:19.566Z,100980.63
2023-03-05T20:42:04.634Z,100982.41
2023-03-05T20:44:50.680Z,100980.75
2023-03-05T20:47:44.936Z,100976.41
2023-03-05T20:50:30.044Z,100978.16
2023-03-05T20:53:14.966Z,100981.59
2023-03-05T20:56:00.061Z,100973.00
2023-03-05T20:58:45.013Z,100976.50
2023-03-05T21:01:30.560Z,100969.69
2023-03-05T21:04:16.400Z,100972.28
2023-03-05T21:07:01.173Z,100962.75
2023-03-05T21:09:46.095Z,100966.72
2023-03-05T21:12:34.270Z,100971.84
2023-03-05T21:15:21.431Z,100960.66
2023-03-05T21:18:06.340Z,100964.25
2023-03-05T21:20:51.094Z,100963.44
2023-03-05T21:23:36.026Z,100970.38
2023-03-05T21:26:21.329Z,100954.00
2023-03-05T21:29:06.568Z,100958.34
2023-03-05T21:31:51.607Z,100955.78
2023-03-05T21:34:36.376Z,100939.50
2023-03-05T21:37:21.159Z,100932.69
2023-03-05T21:40:06.378Z,100933.56
2023-03-05T21:42:52.943Z,100936.22
2023-03-05T21:45:39.317Z,100931.09
2023-03-05T21:48:25.091Z,100931.22
2023-03-05T21:51:12.553Z,100934.75
2023-03-05T21:53:57.548Z,100931.38
2023-03-05T21:56:42.431Z,100928.00
2023-03-05T21:59:27.352Z,100927.28
2023-03-05T22:02:12.820Z,100909.19
2023-03-05T22:04:58.150Z,100911.72
2023-03-05T22:07:43.215Z,100922.22
2023-03-05T22:10:28.224Z,100913.63
2023-03-05T22:13:13.186Z,100902.44
2023-03-05T22:15:59.520Z,100900.75
2023-03-05T22:18:44.558Z,100895.50
2023-03-05T22:21:29.399Z,100895.44
2023-03-05T22:24:14.328Z,100895.56
2023-03-05T22:26:59.261Z,100893.03
2023-03-05T22:29:44.190Z,100887.13
2023-03-05T22:32:32.717Z,100880.34
2023-03-05T22:35:18.126Z,100882.06
2023-03-05T22:38:03.302Z,100879.50
2023-03-05T22:40:48.976Z,100871.69
2023-03-05T22:43:33.678Z,100868.19
2023-03-05T22:46:20.012Z,100865.72
2023-03-05T22:49:05.316Z,100857.94
2023-03-05T22:51:56.754Z,100855.34
2023-03-05T22:54:41.653Z,100850.16
2023-03-05T22:57:26.490Z,100851.06
2023-03-05T23:00:14.328Z,100840.69
2023-03-05T23:02:59.334Z,100853.63
2023-03-05T23:05:44.539Z,100844.06
2023-03-05T23:08:29.454Z,100839.72
2023-03-05T23:11:14.450Z,100842.50
2023-03-05T23:13:59.449Z,100839.13
2023-03-05T23:16:44.402Z,100833.94
2023-03-05T23:19:29.680Z,100840.03
2023-03-05T23:22:14.505Z,100834.88
2023-03-05T23:24:59.434Z,100828.75
2023-03-05T23:27:44.376Z,100833.81
2023-03-05T23:30:30.153Z,100827.84
2023-03-05T23:33:16.426Z,100828.63
2023-03-05T23:36:01.588Z,100825.22
2023-03-05T23:38:46.716Z,100825.22
2023-03-05T23:41:31.484Z,100822.63
2023-03-05T23:44:16.372Z,100815.69
2023-03-05T23:47:01.160Z,100814.88
2023-03-05T23:49:46.049Z,100815.81
2023-03-05T23:52:31.109Z,100820.06
2023-03-05T23:55:17.610Z,100813.22
2023-03-05T23:58:02.821Z,100809.72
